sensor_id;sensor_type;location;lat;lon;timestamp;P1;durP1;ratioP1;P2;durP2;ratioP2
55210;SDS011;41082;52.822;6.666;2023-04-24T00:02:02;0.20;;;0.10;;
55210;SDS011;41082;52.822;6.666;2023-04-24T00:04:28;0.20;;;0.10;;
55210;SDS011;41082;52.822;6.666;2023-04-24T00:06:55;0.20;;;0.20;;
55210;SDS011;41082;52.822;6.666;2023-04-24T00:09:22;0.13;;;0.10;;
55210;SDS011;41082;52.822;6.666;2023-04-24T00:11:48;0.40;;;0.30;;
55210;SDS011;41082;52.822;6.666;2023-04-24T00:14:13;0.80;;;0.28;;
55210;SDS011;41082;52.822;6.666;2023-04-24T00:16:39;0.47;;;0.30;;
55210;SDS011;41082;52.822;6.666;2023-04-24T00:19:05;0.80;;;0.30;;
55210;SDS011;41082;52.822;6.666;2023-04-24T00:21:31;0.70;;;0.30;;
55210;SDS011;41082;52.822;6.666;2023-04-24T00:23:57;0.30;;;0.30;;
55210;SDS011;41082;52.822;6.666;2023-04-24T00:26:23;0.93;;;0.40;;
55210;SDS011;41082;52.822;6.666;2023-04-24T00:28:49;0.35;;;0.30;;
55210;SDS011;41082;52.822;6.666;2023-04-24T00:31:14;7.03;;;1.20;;
55210;SDS011;41082;52.822;6.666;2023-04-24T00:33:40;0.77;;;0.40;;
55210;SDS011;41082;52.822;6.666;2023-04-24T00:36:06;0.90;;;0.73;;
55210;SDS011;41082;52.822;6.666;2023-04-24T00:38:32;0.55;;;0.50;;
55210;SDS011;41082;52.822;6.666;2023-04-24T00:40:58;0.80;;;0.70;;
55210;SDS011;41082;52.822;6.666;2023-04-24T00:43:23;1.50;;;0.80;;
55210;SDS011;41082;52.822;6.666;2023-04-24T00:45:49;2.08;;;0.80;;
55210;SDS011;41082;52.822;6.666;2023-04-24T00:48:15;1.20;;;1.00;;
55210;SDS011;41082;52.822;6.666;2023-04-24T00:50:41;1.25;;;1.13;;
55210;SDS011;41082;52.822;6.666;2023-04-24T00:53:07;1.45;;;1.13;;
55210;SDS011;41082;52.822;6.666;2023-04-24T00:55:33;1.75;;;1.42;;
55210;SDS011;41082;52.822;6.666;2023-04-24T00:57:59;1.92;;;1.83;;
55210;SDS011;41082;52.822;6.666;2023-04-24T01:00:24;2.10;;;1.90;;
55210;SDS011;41082;52.822;6.666;2023-04-24T01:02:50;3.47;;;2.45;;
55210;SDS011;41082;52.822;6.666;2023-04-24T01:05:17;2.97;;;2.67;;
55210;SDS011;41082;52.822;6.666;2023-04-24T01:07:44;3.50;;;2.88;;
55210;SDS011;41082;52.822;6.666;2023-04-24T01:10:12;2.70;;;2.50;;
55210;SDS011;41082;52.822;6.666;2023-04-24T01:12:39;3.65;;;3.35;;
55210;SDS011;41082;52.822;6.666;2023-04-24T01:15:05;3.75;;;3.42;;
55210;SDS011;41082;52.822;6.666;2023-04-24T01:17:31;2.10;;;2.00;;
55210;SDS011;41082;52.822;6.666;2023-04-24T01:19:58;1.40;;;1.30;;
55210;SDS011;41082;52.822;6.666;2023-04-24T01:22:25;1.27;;;1.17;;
55210;SDS011;41082;52.822;6.666;2023-04-24T01:24:51;1.10;;;1.00;;
55210;SDS011;41082;52.822;6.666;2023-04-24T01:27:17;1.83;;;0.95;;
55210;SDS011;41082;52.822;6.666;2023-04-24T01:29:43;1.55;;;1.05;;
55210;SDS011;41082;52.822;6.666;2023-04-24T01:32:09;1.10;;;1.00;;
55210;SDS011;41082;52.822;6.666;2023-04-24T01:34:35;1.42;;;1.13;;
55210;SDS011;41082;52.822;6.666;2023-04-24T01:37:01;1.30;;;1.20;;
55210;SDS011;41082;52.822;6.666;2023-04-24T01:39:26;1.30;;;0.85;;
55210;SDS011;41082;52.822;6.666;2023-04-24T01:41:53;1.08;;;0.95;;
55210;SDS011;41082;52.822;6.666;2023-04-24T01:44:19;2.13;;;1.23;;
55210;SDS011;41082;52.822;6.666;2023-04-24T01:46:45;1.33;;;1.23;;
55210;SDS011;41082;52.822;6.666;2023-04-24T01:49:11;1.52;;;1.42;;
55210;SDS011;41082;52.822;6.666;2023-04-24T01:51:37;1.67;;;1.38;;
55210;SDS011;41082;52.822;6.666;2023-04-24T01:54:02;1.50;;;1.40;;
55210;SDS011;41082;52.822;6.666;2023-04-24T01:56:29;3.30;;;1.85;;
55210;SDS011;41082;52.822;6.666;2023-04-24T01:58:55;3.28;;;2.00;;
55210;SDS011;41082;52.822;6.666;2023-04-24T02:01:23;2.38;;;1.80;;
55210;SDS011;41082;52.822;6.666;2023-04-24T02:03:49;3.17;;;1.90;;
55210;SDS011;41082;52.822;6.666;2023-04-24T02:06:15;2.42;;;1.90;;
55210;SDS011;41082;52.822;6.666;2023-04-24T02:08:40;2.40;;;2.20;;
55210;SDS011;41082;52.822;6.666;2023-04-24T02:11:08;2.47;;;2.30;;
55210;SDS011;41082;52.822;6.666;2023-04-24T02:13:34;3.35;;;2.50;;
55210;SDS011;41082;52.822;6.666;2023-04-24T02:15:59;2.40;;;2.20;;
55210;SDS011;41082;52.822;6.666;2023-04-24T02:18:25;3.08;;;2.88;;
55210;SDS011;41082;52.822;6.666;2023-04-24T02:20:51;3.47;;;3.28;;
55210;SDS011;41082;52.822;6.666;2023-04-24T02:23:17;3.50;;;3.30;;
55210;SDS011;41082;52.822;6.666;2023-04-24T02:25:42;3.63;;;3.38;;
55210;SDS011;41082;52.822;6.666;2023-04-24T02:28:08;4.00;;;3.47;;
55210;SDS011;41082;52.822;6.666;2023-04-24T02:30:33;5.13;;;4.00;;
55210;SDS011;41082;52.822;6.666;2023-04-24T02:32:59;4.15;;;3.83;;
55210;SDS011;41082;52.822;6.666;2023-04-24T02:35:25;4.40;;;4.10;;
55210;SDS011;41082;52.822;6.666;2023-04-24T02:37:50;4.63;;;4.22;;
55210;SDS011;41082;52.822;6.666;2023-04-24T02:40:16;5.13;;;4.72;;
55210;SDS011;41082;52.822;6.666;2023-04-24T02:42:42;4.57;;;4.28;;
55210;SDS011;41082;52.822;6.666;2023-04-24T02:45:07;5.22;;;4.82;;
55210;SDS011;41082;52.822;6.666;2023-04-24T02:47:33;4.82;;;4.43;;
55210;SDS011;41082;52.822;6.666;2023-04-24T02:49:59;5.78;;;5.18;;
55210;SDS011;41082;52.822;6.666;2023-04-24T02:52:24;4.85;;;4.45;;
55210;SDS011;41082;52.822;6.666;2023-04-24T02:54:50;4.85;;;4.45;;
55210;SDS011;41082;52.822;6.666;2023-04-24T02:57:15;5.88;;;4.65;;
55210;SDS011;41082;52.822;6.666;2023-04-24T02:59:41;6.07;;;5.47;;
55210;SDS011;41082;52.822;6.666;2023-04-24T03:02:06;5.43;;;5.03;;
55210;SDS011;41082;52.822;6.666;2023-04-24T03:04:32;5.32;;;4.93;;
55210;SDS011;41082;52.822;6.666;2023-04-24T03:06:57;5.60;;;5.20;;
55210;SDS011;41082;52.822;6.666;2023-04-24T03:09:23;5.85;;;5.07;;
55210;SDS011;41082;52.822;6.666;2023-04-24T03:11:49;5.35;;;4.88;;
55210;SDS011;41082;52.822;6.666;2023-04-24T03:14:15;5.90;;;5.43;;
55210;SDS011;41082;52.822;6.666;2023-04-24T03:16:41;8.60;;;4.75;;
55210;SDS011;41082;52.822;6.666;2023-04-24T03:19:06;5.47;;;4.97;;
55210;SDS011;41082;52.822;6.666;2023-04-24T03:21:32;5.68;;;5.28;;
55210;SDS011;41082;52.822;6.666;2023-04-24T03:23:58;5.20;;;4.78;;
55210;SDS011;41082;52.822;6.666;2023-04-24T03:26:24;5.38;;;4.80;;
55210;SDS011;41082;52.822;6.666;2023-04-24T03:28:49;5.13;;;4.72;;
55210;SDS011;41082;52.822;6.666;2023-04-24T03:31:15;5.22;;;4.72;;
55210;SDS011;41082;52.822;6.666;2023-04-24T03:33:41;4.60;;;4.30;;
55210;SDS011;41082;52.822;6.666;2023-04-24T03:36:07;5.13;;;4.15;;
55210;SDS011;41082;52.822;6.666;2023-04-24T03:38:33;5.50;;;4.50;;
55210;SDS011;41082;52.822;6.666;2023-04-24T03:40:58;4.88;;;4.47;;
55210;SDS011;41082;52.822;6.666;2023-04-24T03:43:24;4.70;;;4.30;;
55210;SDS011;41082;52.822;6.666;2023-04-24T03:45:49;6.22;;;5.65;;
55210;SDS011;41082;52.822;6.666;2023-04-24T03:48:15;4.90;;;4.50;;
55210;SDS011;41082;52.822;6.666;2023-04-24T03:50:41;4.50;;;4.18;;
55210;SDS011;41082;52.822;6.666;2023-04-24T03:53:06;4.95;;;4.55;;
55210;SDS011;41082;52.822;6.666;2023-04-24T03:55:33;6.22;;;3.85;;
55210;SDS011;41082;52.822;6.666;2023-04-24T03:57:58;5.30;;;4.80;;
55210;SDS011;41082;52.822;6.666;2023-04-24T04:00:24;6.45;;;4.80;;
55210;SDS011;41082;52.822;6.666;2023-04-24T04:02:50;4.53;;;4.13;;
55210;SDS011;41082;52.822;6.666;2023-04-24T04:05:16;5.38;;;4.50;;
55210;SDS011;41082;52.822;6.666;2023-04-24T04:07:42;5.00;;;4.50;;
55210;SDS011;41082;52.822;6.666;2023-04-24T04:10:07;4.65;;;4.32;;
55210;SDS011;41082;52.822;6.666;2023-04-24T04:12:33;5.80;;;5.10;;
55210;SDS011;41082;52.822;6.666;2023-04-24T04:14:59;5.70;;;5.30;;
55210;SDS011;41082;52.822;6.666;2023-04-24T04:17:25;6.28;;;5.68;;
55210;SDS011;41082;52.822;6.666;2023-04-24T04:19:50;6.03;;;5.53;;
55210;SDS011;41082;52.822;6.666;2023-04-24T04:22:16;6.68;;;5.97;;
55210;SDS011;41082;52.822;6.666;2023-04-24T04:24:41;7.13;;;6.15;;
55210;SDS011;41082;52.822;6.666;2023-04-24T04:27:08;6.93;;;6.22;;
55210;SDS011;41082;52.822;6.666;2023-04-24T04:29:33;7.07;;;6.38;;
55210;SDS011;41082;52.822;6.666;2023-04-24T04:32:00;6.68;;;6.07;;
55210;SDS011;41082;52.822;6.666;2023-04-24T04:34:27;6.97;;;6.38;;
55210;SDS011;41082;52.822;6.666;2023-04-24T04:36:53;6.30;;;5.80;;
55210;SDS011;41082;52.822;6.666;2023-04-24T04:39:18;6.78;;;6.18;;
55210;SDS011;41082;52.822;6.666;2023-04-24T04:41:45;6.38;;;5.85;;
55210;SDS011;41082;52.822;6.666;2023-04-24T04:44:13;6.60;;;5.90;;
55210;SDS011;41082;52.822;6.666;2023-04-24T04:46:40;5.10;;;4.57;;
55210;SDS011;41082;52.822;6.666;2023-04-24T04:49:06;5.38;;;4.75;;
55210;SDS011;41082;52.822;6.666;2023-04-24T04:51:33;4.85;;;4.45;;
55210;SDS011;41082;52.822;6.666;2023-04-24T04:53:59;4.00;;;3.60;;
55210;SDS011;41082;52.822;6.666;2023-04-24T04:56:25;3.75;;;3.45;;
55210;SDS011;41082;52.822;6.666;2023-04-24T04:58:51;4.32;;;3.90;;
55210;SDS011;41082;52.822;6.666;2023-04-24T05:01:16;3.83;;;3.40;;
55210;SDS011;41082;52.822;6.666;2023-04-24T05:03:42;3.45;;;3.15;;
55210;SDS011;41082;52.822;6.666;2023-04-24T05:06:08;6.18;;;3.13;;
55210;SDS011;41082;52.822;6.666;2023-04-24T05:08:34;3.45;;;3.13;;
55210;SDS011;41082;52.822;6.666;2023-04-24T05:10:59;4.03;;;3.63;;
55210;SDS011;41082;52.822;6.666;2023-04-24T05:13:25;5.20;;;3.30;;
55210;SDS011;41082;52.822;6.666;2023-04-24T05:15:51;3.58;;;3.28;;
55210;SDS011;41082;52.822;6.666;2023-04-24T05:18:17;3.60;;;3.30;;
55210;SDS011;41082;52.822;6.666;2023-04-24T05:20:43;3.50;;;3.20;;
55210;SDS011;41082;52.822;6.666;2023-04-24T05:23:09;5.13;;;4.30;;
55210;SDS011;41082;52.822;6.666;2023-04-24T05:25:35;3.78;;;3.13;;
55210;SDS011;41082;52.822;6.666;2023-04-24T05:28:01;5.07;;;4.13;;
55210;SDS011;41082;52.822;6.666;2023-04-24T05:30:27;4.60;;;4.20;;
55210;SDS011;41082;52.822;6.666;2023-04-24T05:32:52;5.22;;;4.72;;
55210;SDS011;41082;52.822;6.666;2023-04-24T05:35:18;4.70;;;4.30;;
55210;SDS011;41082;52.822;6.666;2023-04-24T05:37:44;5.75;;;3.80;;
55210;SDS011;41082;52.822;6.666;2023-04-24T05:40:10;4.03;;;3.63;;
55210;SDS011;41082;52.822;6.666;2023-04-24T05:42:36;3.78;;;3.47;;
55210;SDS011;41082;52.822;6.666;2023-04-24T05:45:02;4.38;;;3.70;;
55210;SDS011;41082;52.822;6.666;2023-04-24T05:47:28;4.15;;;3.75;;
55210;SDS011;41082;52.822;6.666;2023-04-24T05:49:53;4.88;;;3.38;;
55210;SDS011;41082;52.822;6.666;2023-04-24T05:52:19;4.30;;;3.15;;
55210;SDS011;41082;52.822;6.666;2023-04-24T05:54:45;3.65;;;3.35;;
55210;SDS011;41082;52.822;6.666;2023-04-24T05:57:11;4.35;;;3.13;;
55210;SDS011;41082;52.822;6.666;2023-04-24T05:59:37;3.30;;;3.00;;
55210;SDS011;41082;52.822;6.666;2023-04-24T06:02:05;3.75;;;2.88;;
55210;SDS011;41082;52.822;6.666;2023-04-24T06:04:32;3.28;;;2.47;;
55210;SDS011;41082;52.822;6.666;2023-04-24T06:06:58;3.20;;;2.80;;
55210;SDS011;41082;52.822;6.666;2023-04-24T06:09:24;5.20;;;2.58;;
55210;SDS011;41082;52.822;6.666;2023-04-24T06:11:50;2.95;;;2.22;;
55210;SDS011;41082;52.822;6.666;2023-04-24T06:14:19;3.03;;;2.47;;
55210;SDS011;41082;52.822;6.666;2023-04-24T06:16:46;2.72;;;1.75;;
55210;SDS011;41082;52.822;6.666;2023-04-24T06:19:11;3.65;;;1.88;;
55210;SDS011;41082;52.822;6.666;2023-04-24T06:21:37;1.80;;;1.50;;
55210;SDS011;41082;52.822;6.666;2023-04-24T06:24:02;3.08;;;1.98;;
55210;SDS011;41082;52.822;6.666;2023-04-24T06:26:29;2.20;;;2.00;;
55210;SDS011;41082;52.822;6.666;2023-04-24T06:28:55;1.95;;;1.60;;
55210;SDS011;41082;52.822;6.666;2023-04-24T06:31:21;2.08;;;1.67;;
55210;SDS011;41082;52.822;6.666;2023-04-24T06:33:48;1.70;;;1.58;;
55210;SDS011;41082;52.822;6.666;2023-04-24T06:36:14;4.82;;;1.45;;
55210;SDS011;41082;52.822;6.666;2023-04-24T06:38:40;1.88;;;1.42;;
55210;SDS011;41082;52.822;6.666;2023-04-24T06:41:06;1.35;;;0.90;;
55210;SDS011;41082;52.822;6.666;2023-04-24T06:43:32;1.77;;;0.90;;
55210;SDS011;41082;52.822;6.666;2023-04-24T06:45:58;1.55;;;0.52;;
55210;SDS011;41082;52.822;6.666;2023-04-24T06:48:24;1.08;;;0.70;;
55210;SDS011;41082;52.822;6.666;2023-04-24T06:50:50;1.50;;;0.40;;
55210;SDS011;41082;52.822;6.666;2023-04-24T06:53:16;0.80;;;0.40;;
55210;SDS011;41082;52.822;6.666;2023-04-24T06:55:42;0.95;;;0.28;;
55210;SDS011;41082;52.822;6.666;2023-04-24T06:58:09;1.10;;;0.40;;
55210;SDS011;41082;52.822;6.666;2023-04-24T07:00:35;0.70;;;0.30;;
55210;SDS011;41082;52.822;6.666;2023-04-24T07:03:01;2.70;;;0.47;;
55210;SDS011;41082;52.822;6.666;2023-04-24T07:05:27;2.10;;;0.77;;
55210;SDS011;41082;52.822;6.666;2023-04-24T07:07:53;1.27;;;0.50;;
55210;SDS011;41082;52.822;6.666;2023-04-24T07:10:18;2.38;;;0.55;;
55210;SDS011;41082;52.822;6.666;2023-04-24T07:12:45;1.17;;;0.70;;
55210;SDS011;41082;52.822;6.666;2023-04-24T07:15:11;1.83;;;1.10;;
55210;SDS011;41082;52.822;6.666;2023-04-24T07:17:37;3.42;;;1.52;;
55210;SDS011;41082;52.822;6.666;2023-04-24T07:20:04;2.38;;;1.33;;
55210;SDS011;41082;52.822;6.666;2023-04-24T07:22:30;2.75;;;1.38;;
55210;SDS011;41082;52.822;6.666;2023-04-24T07:24:56;3.17;;;1.45;;
55210;SDS011;41082;52.822;6.666;2023-04-24T07:27:21;1.65;;;1.38;;
55210;SDS011;41082;52.822;6.666;2023-04-24T07:29:47;3.38;;;1.40;;
55210;SDS011;41082;52.822;6.666;2023-04-24T07:32:13;4.43;;;1.73;;
55210;SDS011;41082;52.822;6.666;2023-04-24T07:34:38;3.45;;;2.15;;
55210;SDS011;41082;52.822;6.666;2023-04-24T07:37:05;3.38;;;2.30;;
55210;SDS011;41082;52.822;6.666;2023-04-24T07:39:30;4.22;;;2.28;;
55210;SDS011;41082;52.822;6.666;2023-04-24T07:41:56;4.15;;;3.05;;
55210;SDS011;41082;52.822;6.666;2023-04-24T07:44:24;5.13;;;3.42;;
55210;SDS011;41082;52.822;6.666;2023-04-24T07:46:49;5.75;;;2.38;;
55210;SDS011;41082;52.822;6.666;2023-04-24T07:49:15;3.30;;;2.50;;
55210;SDS011;41082;52.822;6.666;2023-04-24T07:51:41;4.40;;;2.20;;
55210;SDS011;41082;52.822;6.666;2023-04-24T07:54:06;3.65;;;2.40;;
55210;SDS011;41082;52.822;6.666;2023-04-24T07:56:32;2.40;;;1.95;;
55210;SDS011;41082;52.822;6.666;2023-04-24T07:58:58;2.85;;;1.70;;
55210;SDS011;41082;52.822;6.666;2023-04-24T08:01:24;3.50;;;1.65;;
55210;SDS011;41082;52.822;6.666;2023-04-24T08:03:50;6.18;;;1.38;;
55210;SDS011;41082;52.822;6.666;2023-04-24T08:06:16;4.85;;;1.05;;
55210;SDS011;41082;52.822;6.666;2023-04-24T08:08:42;2.60;;;0.80;;
55210;SDS011;41082;52.822;6.666;2023-04-24T08:11:08;2.47;;;0.95;;
55210;SDS011;41082;52.822;6.666;2023-04-24T08:13:33;1.80;;;0.73;;
55210;SDS011;41082;52.822;6.666;2023-04-24T08:15:59;3.33;;;1.00;;
55210;SDS011;41082;52.822;6.666;2023-04-24T08:18:25;3.85;;;1.10;;
55210;SDS011;41082;52.822;6.666;2023-04-24T08:20:51;2.17;;;0.80;;
55210;SDS011;41082;52.822;6.666;2023-04-24T08:23:16;2.63;;;0.80;;
55210;SDS011;41082;52.822;6.666;2023-04-24T08:25:42;3.95;;;0.90;;
55210;SDS011;41082;52.822;6.666;2023-04-24T08:28:08;2.38;;;0.60;;
55210;SDS011;41082;52.822;6.666;2023-04-24T08:30:34;2.78;;;0.80;;
55210;SDS011;41082;52.822;6.666;2023-04-24T08:33:00;4.22;;;0.73;;
55210;SDS011;41082;52.822;6.666;2023-04-24T08:35:26;3.97;;;0.73;;
55210;SDS011;41082;52.822;6.666;2023-04-24T08:37:52;2.85;;;1.10;;
55210;SDS011;41082;52.822;6.666;2023-04-24T08:40:18;3.10;;;1.60;;
55210;SDS011;41082;52.822;6.666;2023-04-24T08:42:51;4.32;;;2.08;;
55210;SDS011;41082;52.822;6.666;2023-04-24T08:45:19;5.68;;;2.70;;
55210;SDS011;41082;52.822;6.666;2023-04-24T08:47:45;8.88;;;4.47;;
55210;SDS011;41082;52.822;6.666;2023-04-24T08:50:12;10.57;;;5.18;;
55210;SDS011;41082;52.822;6.666;2023-04-24T08:52:38;11.05;;;4.88;;
55210;SDS011;41082;52.822;6.666;2023-04-24T08:55:04;9.85;;;5.38;;
55210;SDS011;41082;52.822;6.666;2023-04-24T08:57:30;12.60;;;5.35;;
55210;SDS011;41082;52.822;6.666;2023-04-24T08:59:57;12.30;;;6.35;;
55210;SDS011;41082;52.822;6.666;2023-04-24T09:02:25;9.60;;;6.03;;
55210;SDS011;41082;52.822;6.666;2023-04-24T09:04:52;15.07;;;6.60;;
55210;SDS011;41082;52.822;6.666;2023-04-24T09:07:18;9.00;;;6.78;;
55210;SDS011;41082;52.822;6.666;2023-04-24T09:09:44;12.38;;;7.20;;
55210;SDS011;41082;52.822;6.666;2023-04-24T09:12:10;12.52;;;8.75;;
55210;SDS011;41082;52.822;6.666;2023-04-24T09:14:36;13.50;;;8.80;;
55210;SDS011;41082;52.822;6.666;2023-04-24T09:17:09;18.48;;;10.23;;
55210;SDS011;41082;52.822;6.666;2023-04-24T09:19:36;16.33;;;9.45;;
55210;SDS011;41082;52.822;6.666;2023-04-24T09:22:06;18.60;;;10.88;;
55210;SDS011;41082;52.822;6.666;2023-04-24T09:24:33;18.50;;;10.98;;
55210;SDS011;41082;52.822;6.666;2023-04-24T09:27:00;18.45;;;11.93;;
55210;SDS011;41082;52.822;6.666;2023-04-24T09:29:29;21.30;;;11.20;;
55210;SDS011;41082;52.822;6.666;2023-04-24T09:31:54;18.42;;;12.50;;
55210;SDS011;41082;52.822;6.666;2023-04-24T09:34:21;19.90;;;12.02;;
55210;SDS011;41082;52.822;6.666;2023-04-24T09:36:48;18.50;;;11.35;;
55210;SDS011;41082;52.822;6.666;2023-04-24T09:39:14;19.48;;;11.63;;
55210;SDS011;41082;52.822;6.666;2023-04-24T09:41:43;15.98;;;10.48;;
55210;SDS011;41082;52.822;6.666;2023-04-24T09:44:16;15.82;;;11.05;;
55210;SDS011;41082;52.822;6.666;2023-04-24T09:46:50;16.60;;;10.68;;
55210;SDS011;41082;52.822;6.666;2023-04-24T09:49:25;16.48;;;10.43;;
55210;SDS011;41082;52.822;6.666;2023-04-24T09:51:53;15.70;;;9.88;;
55210;SDS011;41082;52.822;6.666;2023-04-24T09:54:31;18.20;;;9.80;;
55210;SDS011;41082;52.822;6.666;2023-04-24T09:56:58;13.88;;;8.52;;
55210;SDS011;41082;52.822;6.666;2023-04-24T09:59:25;13.38;;;9.23;;
55210;SDS011;41082;52.822;6.666;2023-04-24T10:01:50;11.93;;;8.20;;
55210;SDS011;41082;52.822;6.666;2023-04-24T10:04:22;15.77;;;8.98;;
55210;SDS011;41082;52.822;6.666;2023-04-24T10:06:50;16.85;;;8.70;;
55210;SDS011;41082;52.822;6.666;2023-04-24T10:09:18;15.85;;;8.98;;
55210;SDS011;41082;52.822;6.666;2023-04-24T10:11:46;16.33;;;8.65;;
55210;SDS011;41082;52.822;6.666;2023-04-24T10:16:46;13.75;;;7.03;;
55210;SDS011;41082;52.822;6.666;2023-04-24T10:19:13;11.93;;;6.68;;
55210;SDS011;41082;52.822;6.666;2023-04-24T10:21:40;14.90;;;7.30;;
55210;SDS011;41082;52.822;6.666;2023-04-24T10:24:10;11.27;;;6.95;;
55210;SDS011;41082;52.822;6.666;2023-04-24T10:26:37;11.65;;;6.60;;
55210;SDS011;41082;52.822;6.666;2023-04-24T10:29:04;14.43;;;6.15;;
55210;SDS011;41082;52.822;6.666;2023-04-24T10:31:34;13.50;;;6.10;;
55210;SDS011;41082;52.822;6.666;2023-04-24T10:34:03;11.40;;;4.88;;
55210;SDS011;41082;52.822;6.666;2023-04-24T10:36:30;10.40;;;4.53;;
55210;SDS011;41082;52.822;6.666;2023-04-24T10:38:58;13.38;;;4.03;;
55210;SDS011;41082;52.822;6.666;2023-04-24T10:41:25;11.05;;;4.03;;
55210;SDS011;41082;52.822;6.666;2023-04-24T10:44:07;9.80;;;4.25;;
55210;SDS011;41082;52.822;6.666;2023-04-24T10:46:37;12.18;;;3.60;;
55210;SDS011;41082;52.822;6.666;2023-04-24T10:49:07;12.68;;;3.28;;
55210;SDS011;41082;52.822;6.666;2023-04-24T10:52:09;12.32;;;2.85;;
55210;SDS011;41082;52.822;6.666;2023-04-24T10:54:40;7.80;;;2.10;;
55210;SDS011;41082;52.822;6.666;2023-04-24T10:59:43;11.57;;;2.13;;
55210;SDS011;41082;52.822;6.666;2023-04-24T11:02:08;10.32;;;1.98;;
55210;SDS011;41082;52.822;6.666;2023-04-24T11:04:34;10.13;;;1.58;;
55210;SDS011;41082;52.822;6.666;2023-04-24T11:07:02;10.38;;;1.83;;
55210;SDS011;41082;52.822;6.666;2023-04-24T11:09:30;11.02;;;2.13;;
55210;SDS011;41082;52.822;6.666;2023-04-24T11:12:09;6.95;;;2.08;;
55210;SDS011;41082;52.822;6.666;2023-04-24T11:17:30;13.30;;;1.90;;
55210;SDS011;41082;52.822;6.666;2023-04-24T11:22:41;9.98;;;1.70;;
55210;SDS011;41082;52.822;6.666;2023-04-24T11:25:06;4.80;;;1.33;;
55210;SDS011;41082;52.822;6.666;2023-04-24T11:27:39;6.60;;;1.30;;
55210;SDS011;41082;52.822;6.666;2023-04-24T11:30:10;4.85;;;1.40;;
55210;SDS011;41082;52.822;6.666;2023-04-24T11:32:37;7.15;;;1.00;;
55210;SDS011;41082;52.822;6.666;2023-04-24T11:35:22;8.18;;;1.48;;
55210;SDS011;41082;52.822;6.666;2023-04-24T11:37:53;7.82;;;0.95;;
55210;SDS011;41082;52.822;6.666;2023-04-24T11:40:20;7.75;;;0.98;;
55210;SDS011;41082;52.822;6.666;2023-04-24T11:42:51;7.88;;;1.02;;
55210;SDS011;41082;52.822;6.666;2023-04-24T11:45:18;9.70;;;1.35;;
55210;SDS011;41082;52.822;6.666;2023-04-24T11:47:48;9.07;;;1.90;;
55210;SDS011;41082;52.822;6.666;2023-04-24T11:50:16;6.70;;;0.88;;
55210;SDS011;41082;52.822;6.666;2023-04-24T11:52:44;5.65;;;1.35;;
55210;SDS011;41082;52.822;6.666;2023-04-24T11:57:40;11.48;;;1.67;;
55210;SDS011;41082;52.822;6.666;2023-04-24T12:00:14;6.13;;;1.15;;
55210;SDS011;41082;52.822;6.666;2023-04-24T12:02:41;5.15;;;0.63;;
55210;SDS011;41082;52.822;6.666;2023-04-24T12:05:07;8.48;;;1.27;;
55210;SDS011;41082;52.822;6.666;2023-04-24T12:07:39;8.95;;;0.95;;
55210;SDS011;41082;52.822;6.666;2023-04-24T12:10:08;6.90;;;1.42;;
55210;SDS011;41082;52.822;6.666;2023-04-24T12:12:34;6.95;;;1.08;;
55210;SDS011;41082;52.822;6.666;2023-04-24T12:15:00;7.78;;;1.00;;
55210;SDS011;41082;52.822;6.666;2023-04-24T12:17:31;7.70;;;0.80;;
55210;SDS011;41082;52.822;6.666;2023-04-24T12:20:02;7.00;;;0.60;;
55210;SDS011;41082;52.822;6.666;2023-04-24T12:25:32;4.93;;;0.90;;
55210;SDS011;41082;52.822;6.666;2023-04-24T12:32:59;4.97;;;1.45;;
55210;SDS011;41082;52.822;6.666;2023-04-24T12:35:29;6.38;;;0.70;;
55210;SDS011;41082;52.822;6.666;2023-04-24T12:38:05;4.20;;;0.50;;
55210;SDS011;41082;52.822;6.666;2023-04-24T12:40:32;7.47;;;0.50;;
55210;SDS011;41082;52.822;6.666;2023-04-24T12:42:58;6.50;;;1.67;;
55210;SDS011;41082;52.822;6.666;2023-04-24T12:45:23;2.90;;;0.77;;
55210;SDS011;41082;52.822;6.666;2023-04-24T12:47:50;6.93;;;0.40;;
55210;SDS011;41082;52.822;6.666;2023-04-24T12:50:15;3.75;;;0.40;;
55210;SDS011;41082;52.822;6.666;2023-04-24T12:52:42;3.45;;;0.40;;
55210;SDS011;41082;52.822;6.666;2023-04-24T12:55:08;2.65;;;0.20;;
55210;SDS011;41082;52.822;6.666;2023-04-24T12:57:35;2.70;;;0.20;;
55210;SDS011;41082;52.822;6.666;2023-04-24T13:00:02;1.85;;;0.30;;
55210;SDS011;41082;52.822;6.666;2023-04-24T13:02:29;3.67;;;0.40;;
55210;SDS011;41082;52.822;6.666;2023-04-24T13:04:56;5.90;;;0.45;;
55210;SDS011;41082;52.822;6.666;2023-04-24T13:07:23;2.75;;;0.10;;
55210;SDS011;41082;52.822;6.666;2023-04-24T13:09:50;3.95;;;0.20;;
55210;SDS011;41082;52.822;6.666;2023-04-24T13:12:16;4.78;;;0.25;;
55210;SDS011;41082;52.822;6.666;2023-04-24T13:14:42;3.17;;;0.20;;
55210;SDS011;41082;52.822;6.666;2023-04-24T13:17:07;3.30;;;0.43;;
55210;SDS011;41082;52.822;6.666;2023-04-24T13:19:37;3.47;;;0.32;;
55210;SDS011;41082;52.822;6.666;2023-04-24T13:22:06;4.05;;;0.40;;
55210;SDS011;41082;52.822;6.666;2023-04-24T13:24:33;7.15;;;0.50;;
55210;SDS011;41082;52.822;6.666;2023-04-24T13:26:59;4.93;;;0.30;;
55210;SDS011;41082;52.822;6.666;2023-04-24T13:29:25;3.97;;;0.30;;
55210;SDS011;41082;52.822;6.666;2023-04-24T13:31:51;3.17;;;0.20;;
55210;SDS011;41082;52.822;6.666;2023-04-24T13:34:21;4.05;;;0.30;;
55210;SDS011;41082;52.822;6.666;2023-04-24T13:36:49;4.60;;;0.28;;
55210;SDS011;41082;52.822;6.666;2023-04-24T13:39:18;3.03;;;0.73;;
55210;SDS011;41082;52.822;6.666;2023-04-24T13:41:43;4.35;;;0.35;;
55210;SDS011;41082;52.822;6.666;2023-04-24T13:44:10;3.92;;;0.30;;
55210;SDS011;41082;52.822;6.666;2023-04-24T13:46:35;4.50;;;0.35;;
55210;SDS011;41082;52.822;6.666;2023-04-24T13:49:01;4.25;;;0.20;;
55210;SDS011;41082;52.822;6.666;2023-04-24T13:51:28;4.57;;;0.25;;
55210;SDS011;41082;52.822;6.666;2023-04-24T13:53:55;2.97;;;0.20;;
55210;SDS011;41082;52.822;6.666;2023-04-24T13:56:20;4.07;;;0.22;;
55210;SDS011;41082;52.822;6.666;2023-04-24T13:58:47;5.70;;;0.32;;
55210;SDS011;41082;52.822;6.666;2023-04-24T14:01:13;3.88;;;0.20;;
55210;SDS011;41082;52.822;6.666;2023-04-24T14:03:40;3.92;;;0.30;;
55210;SDS011;41082;52.822;6.666;2023-04-24T14:06:08;4.45;;;0.40;;
55210;SDS011;41082;52.822;6.666;2023-04-24T14:08:33;4.55;;;0.30;;
55210;SDS011;41082;52.822;6.666;2023-04-24T14:10:59;3.05;;;0.20;;
55210;SDS011;41082;52.822;6.666;2023-04-24T14:13:25;4.38;;;0.30;;
55210;SDS011;41082;52.822;6.666;2023-04-24T14:15:50;3.08;;;0.32;;
55210;SDS011;41082;52.822;6.666;2023-04-24T14:18:17;4.72;;;0.60;;
55210;SDS011;41082;52.822;6.666;2023-04-24T14:20:43;5.28;;;0.35;;
55210;SDS011;41082;52.822;6.666;2023-04-24T14:23:09;5.80;;;0.50;;
55210;SDS011;41082;52.822;6.666;2023-04-24T14:25:34;6.18;;;0.50;;
55210;SDS011;41082;52.822;6.666;2023-04-24T14:28:00;5.75;;;0.40;;
55210;SDS011;41082;52.822;6.666;2023-04-24T14:30:26;5.30;;;0.57;;
55210;SDS011;41082;52.822;6.666;2023-04-24T14:32:51;6.60;;;0.60;;
55210;SDS011;41082;52.822;6.666;2023-04-24T14:35:17;6.93;;;0.45;;
55210;SDS011;41082;52.822;6.666;2023-04-24T14:37:43;11.13;;;0.90;;
55210;SDS011;41082;52.822;6.666;2023-04-24T14:40:08;8.05;;;1.08;;
55210;SDS011;41082;52.822;6.666;2023-04-24T14:42:34;9.90;;;0.90;;
55210;SDS011;41082;52.822;6.666;2023-04-24T14:45:01;11.82;;;1.13;;
55210;SDS011;41082;52.822;6.666;2023-04-24T14:47:26;9.45;;;0.68;;
55210;SDS011;41082;52.822;6.666;2023-04-24T14:49:52;10.18;;;0.63;;
55210;SDS011;41082;52.822;6.666;2023-04-24T14:52:18;11.93;;;1.17;;
55210;SDS011;41082;52.822;6.666;2023-04-24T14:54:44;7.93;;;0.80;;
55210;SDS011;41082;52.822;6.666;2023-04-24T14:57:10;8.93;;;0.80;;
55210;SDS011;41082;52.822;6.666;2023-04-24T14:59:35;12.13;;;1.00;;
55210;SDS011;41082;52.822;6.666;2023-04-24T15:02:01;8.77;;;1.23;;
55210;SDS011;41082;52.822;6.666;2023-04-24T15:04:27;7.50;;;0.80;;